createdAt,value
2023-05-25T00:02:09.971Z,10.60
2023-05-25T00:04:40.636Z,10.60
2023-05-25T00:07:12.562Z,10.50
2023-05-25T00:09:44.352Z,10.50
2023-05-25T00:12:12.956Z,10.50
2023-05-25T00:14:42.436Z,10.50
2023-05-25T00:17:11.511Z,10.50
2023-05-25T00:19:42.548Z,10.50
2023-05-25T00:22:11.336Z,10.50
2023-05-25T00:24:41.810Z,10.50
2023-05-25T00:27:10.921Z,10.50
2023-05-25T00:29:43.844Z,10.50
2023-05-25T00:32:12.935Z,10.50
2023-05-25T00:34:43.658Z,10.50
2023-05-25T00:37:12.900Z,10.60
2023-05-25T00:39:44.345Z,10.60
2023-05-25T00:42:13.352Z,10.70
2023-05-25T00:44:42.338Z,10.70
2023-05-25T00:47:12.984Z,10.70
2023-05-25T00:49:43.764Z,10.70
2023-05-25T00:52:14.846Z,10.70
2023-05-25T00:54:48.244Z,10.70
2023-05-25T00:57:19.708Z,10.70
2023-05-25T00:59:50.868Z,10.70
2023-05-25T01:02:22.054Z,10.70
2023-05-25T01:04:55.714Z,10.70
2023-05-25T01:07:27.229Z,10.60
2023-05-25T01:10:02.501Z,10.60
2023-05-25T01:12:33.518Z,10.60
2023-05-25T01:15:06.642Z,10.50
2023-05-25T01:17:38.441Z,10.50
2023-05-25T01:20:12.253Z,10.50
2023-05-25T01:22:50.653Z,10.50
2023-05-25T01:25:25.288Z,10.40
2023-05-25T01:28:01.941Z,10.30
2023-05-25T01:30:34.253Z,10.30
2023-05-25T01:33:06.572Z,10.20
2023-05-25T01:35:37.262Z,10.20
2023-05-25T01:38:08.361Z,10.20
2023-05-25T01:40:37.449Z,10.10
2023-05-25T01:43:08.616Z,10.10
2023-05-25T01:45:37.593Z,10.00
2023-05-25T01:48:20.489Z,10.00
2023-05-25T01:50:56.757Z,9.90
2023-05-25T01:53:32.553Z,9.90
2023-05-25T01:56:05.070Z,9.90
2023-05-25T01:58:39.065Z,9.80
2023-05-25T02:01:09.864Z,9.80
2023-05-25T02:03:39.986Z,9.80
2023-05-25T02:06:09.299Z,9.70
2023-05-25T02:08:39.846Z,9.70
2023-05-25T02:11:08.941Z,9.70
2023-05-25T02:13:37.798Z,9.70
2023-05-25T02:16:07.924Z,9.70
2023-05-25T02:18:37.110Z,9.60
2023-05-25T02:21:06.481Z,9.60
2023-05-25T02:23:35.280Z,9.60
2023-05-25T02:26:05.366Z,9.50
2023-05-25T02:28:35.484Z,9.50
2023-05-25T02:31:05.673Z,9.40
2023-05-25T02:33:34.604Z,9.40
2023-05-25T02:36:03.104Z,9.40
2023-05-25T02:38:31.994Z,9.30
2023-05-25T02:41:00.886Z,9.30
2023-05-25T02:43:31.357Z,9.30
2023-05-25T02:45:59.871Z,9.30
2023-05-25T02:48:28.275Z,9.20
2023-05-25T02:50:56.827Z,9.20
2023-05-25T02:53:26.154Z,9.10
2023-05-25T02:55:56.365Z,9.10
2023-05-25T02:58:28.468Z,9.10
2023-05-25T03:01:31.554Z,9.10
2023-05-25T03:04:03.026Z,9.10
2023-05-25T03:06:37.996Z,9.00
2023-05-25T03:09:13.882Z,9.00
2023-05-25T03:11:43.300Z,9.00
2023-05-25T03:14:16.380Z,9.00
2023-05-25T03:16:54.158Z,9.00
2023-05-25T03:19:24.525Z,9.00
2023-05-25T03:21:54.674Z,9.00
2023-05-25T03:24:27.326Z,9.00
2023-05-25T03:26:59.231Z,9.00
2023-05-25T03:29:28.100Z,9.10
2023-05-25T03:31:58.816Z,9.00
2023-05-25T03:34:30.371Z,9.00
2023-05-25T03:36:59.485Z,9.00
2023-05-25T03:39:28.401Z,9.00
2023-05-25T03:41:58.141Z,9.10
2023-05-25T03:44:26.978Z,9.10
2023-05-25T03:46:57.045Z,9.10
2023-05-25T03:49:28.378Z,9.10
2023-05-25T03:52:00.483Z,9.10
2023-05-25T03:54:28.955Z,9.10
2023-05-25T03:56:59.054Z,9.10
2023-05-25T03:59:28.261Z,9.10
2023-05-25T04:02:00.701Z,9.10
2023-05-25T04:04:30.703Z,9.20
2023-05-25T04:07:00.802Z,9.20
2023-05-25T04:09:29.787Z,9.30
2023-05-25T04:11:58.668Z,9.30
2023-05-25T04:14:27.351Z,9.30
2023-05-25T04:16:59.071Z,9.40
2023-05-25T04:19:27.593Z,9.40
2023-05-25T04:21:56.493Z,9.50
2023-05-25T04:24:27.589Z,9.50
2023-05-25T04:26:58.013Z,9.60
2023-05-25T04:29:27.040Z,9.60
2023-05-25T04:32:03.924Z,9.70
2023-05-25T04:34:53.920Z,9.80
2023-05-25T04:37:28.999Z,9.80
2023-05-25T04:40:01.669Z,9.90
2023-05-25T04:42:31.606Z,10.00
2023-05-25T04:45:00.848Z,10.10
2023-05-25T04:47:34.754Z,10.20
2023-05-25T04:50:03.748Z,10.30
2023-05-25T04:52:32.667Z,10.30
2023-05-25T04:55:02.965Z,10.50
2023-05-25T04:57:35.222Z,10.50
2023-05-25T05:00:05.302Z,10.60
2023-05-25T05:02:36.646Z,10.70
2023-05-25T05:05:07.711Z,10.80
2023-05-25T05:07:37.222Z,10.90
2023-05-25T05:10:06.879Z,11.00
2023-05-25T05:12:37.742Z,11.10
2023-05-25T05:15:09.198Z,11.20
2023-05-25T05:17:39.676Z,11.30
2023-05-25T05:20:11.158Z,11.40
2023-05-25T05:22:40.863Z,11.50
2023-05-25T05:25:11.262Z,11.60
2023-05-25T05:27:40.702Z,11.70
2023-05-25T05:30:16.737Z,11.90
2023-05-25T05:32:49.867Z,12.00
2023-05-25T05:35:19.648Z,12.10
2023-05-25T05:37:49.201Z,12.20
2023-05-25T05:40:18.537Z,12.30
2023-05-25T05:42:48.757Z,12.50
2023-05-25T05:45:18.928Z,12.60
2023-05-25T05:47:48.849Z,12.70
2023-05-25T05:50:18.141Z,12.80
2023-05-25T05:52:48.059Z,12.90
2023-05-25T05:55:17.016Z,13.00
2023-05-25T05:57:47.089Z,13.10
2023-05-25T06:00:19.397Z,13.20
2023-05-25T06:02:49.575Z,13.30
2023-05-25T06:05:22.869Z,13.40
2023-05-25T06:07:54.245Z,13.40
2023-05-25T06:10:24.685Z,13.50
2023-05-25T06:12:54.009Z,13.70
2023-05-25T06:15:23.281Z,13.80
2023-05-25T06:17:57.271Z,13.80
2023-05-25T06:20:26.595Z,13.90
2023-05-25T06:22:55.941Z,14.00
2023-05-25T06:25:24.648Z,14.10
2023-05-25T06:27:57.103Z,14.20
2023-05-25T06:30:25.833Z,14.30
2023-05-25T06:32:56.721Z,14.40
2023-05-25T06:35:29.437Z,14.50
2023-05-25T06:37:59.233Z,14.60
2023-05-25T06:40:29.358Z,14.70
2023-05-25T06:42:58.372Z,14.70
2023-05-25T06:45:45.023Z,14.80
2023-05-25T06:48:18.067Z,14.90
2023-05-25T06:50:47.278Z,14.90
2023-05-25T06:53:17.592Z,15.00
2023-05-25T06:55:46.638Z,15.10
2023-05-25T06:58:15.836Z,15.10
2023-05-25T07:00:46.692Z,15.10
2023-05-25T07:03:17.664Z,15.10
2023-05-25T07:05:46.561Z,15.10
2023-05-25T07:08:15.097Z,15.20
2023-05-25T07:10:43.823Z,15.30
2023-05-25T07:13:12.470Z,15.30
2023-05-25T07:15:41.232Z,15.30
2023-05-25T07:18:12.832Z,15.30
2023-05-25T07:20:48.606Z,15.30
2023-05-25T07:23:17.567Z,15.30
2023-05-25T07:25:46.821Z,15.30
2023-05-25T07:28:15.610Z,15.40
2023-05-25T07:30:44.213Z,15.50
2023-05-25T07:33:13.290Z,15.60
2023-05-25T07:35:45.091Z,15.60
2023-05-25T07:38:13.659Z,15.70
2023-05-25T07:40:42.662Z,15.90
2023-05-25T07:43:11.614Z,16.10
2023-05-25T07:45:41.246Z,16.20
2023-05-25T07:48:10.211Z,16.40
2023-05-25T07:50:39.166Z,16.50
2023-05-25T07:53:11.101Z,16.70
2023-05-25T07:55:39.797Z,16.90
2023-05-25T07:58:11.170Z,17.00
2023-05-25T08:00:40.204Z,17.10
2023-05-25T08:03:09.732Z,17.20
2023-05-25T08:05:38.819Z,17.40
2023-05-25T08:08:07.474Z,17.70
2023-05-25T08:10:38.587Z,17.90
2023-05-25T08:13:07.409Z,18.00
2023-05-25T08:15:36.203Z,18.10
2023-05-25T08:18:05.317Z,18.30
2023-05-25T08:20:33.987Z,18.50
2023-05-25T08:23:03.278Z,18.60
2023-05-25T08:25:33.589Z,18.80
2023-05-25T08:28:05.138Z,19.00
2023-05-25T08:30:34.206Z,19.10
2023-05-25T08:33:03.111Z,19.30
2023-05-25T08:35:31.632Z,19.50
2023-05-25T08:38:00.490Z,19.70
2023-05-25T08:40:31.174Z,19.80
2023-05-25T08:43:00.631Z,20.00
2023-05-25T08:45:34.936Z,20.20
2023-05-25T08:48:13.999Z,20.30
2023-05-25T08:50:49.173Z,20.30
2023-05-25T08:53:20.924Z,20.50
2023-05-25T08:55:51.202Z,20.60
2023-05-25T08:58:27.075Z,20.70
2023-05-25T09:01:00.682Z,20.80
2023-05-25T09:03:32.402Z,20.70
2023-05-25T09:06:03.766Z,20.80
2023-05-25T09:08:34.878Z,21.10
2023-05-25T09:11:05.533Z,21.30
2023-05-25T09:13:34.853Z,21.40
2023-05-25T09:16:07.262Z,21.60
2023-05-25T09:18:36.176Z,21.70
2023-05-25T09:21:06.981Z,21.90
2023-05-25T09:23:36.841Z,22.30
2023-05-25T09:26:05.750Z,22.60
2023-05-25T09:28:34.807Z,22.80
2023-05-25T09:31:03.666Z,23.10
2023-05-25T09:33:34.989Z,23.30
2023-05-25T09:36:06.232Z,23.40
2023-05-25T09:38:35.865Z,23.60
2023-05-25T09:41:10.127Z,23.70
2023-05-25T09:43:46.797Z,23.80
2023-05-25T09:46:23.508Z,24.00
2023-05-25T09:48:56.866Z,24.20
2023-05-25T09:51:25.945Z,24.10
2023-05-25T09:53:56.014Z,24.50
2023-05-25T09:56:25.316Z,24.70
2023-05-25T09:58:54.418Z,24.90
2023-05-25T10:01:23.308Z,24.80
2023-05-25T10:04:04.146Z,24.70
2023-05-25T10:06:35.168Z,24.50
2023-05-25T10:09:05.398Z,24.80
2023-05-25T10:11:36.996Z,25.00
2023-05-25T10:14:09.684Z,25.10
2023-05-25T10:16:43.327Z,25.10
2023-05-25T10:19:18.413Z,25.00
2023-05-25T10:21:58.218Z,24.90
2023-05-25T10:24:34.145Z,25.10
2023-05-25T10:27:18.425Z,25.30
2023-05-25T10:29:57.567Z,25.30
2023-05-25T10:32:29.005Z,25.10
2023-05-25T10:34:59.763Z,25.20
2023-05-25T10:37:29.503Z,25.30
2023-05-25T10:39:59.582Z,25.60
2023-05-25T10:42:29.822Z,25.60
2023-05-25T10:45:00.160Z,25.30
2023-05-25T10:47:29.521Z,25.40
2023-05-25T10:50:02.926Z,25.80
2023-05-25T10:52:36.063Z,26.00
2023-05-25T10:55:05.449Z,26.10
2023-05-25T10:57:33.999Z,25.90
2023-05-25T11:00:07.025Z,26.30
2023-05-25T11:02:53.961Z,26.50
2023-05-25T11:05:52.828Z,26.50
2023-05-25T11:08:23.741Z,26.70
2023-05-25T11:10:55.656Z,26.90
2023-05-25T11:13:41.455Z,27.30
2023-05-25T11:16:22.834Z,27.60
2023-05-25T11:18:54.102Z,27.70
2023-05-25T11:21:45.085Z,27.80
2023-05-25T11:24:17.632Z,27.80
2023-05-25T11:26:59.567Z,28.00
2023-05-25T11:29:36.182Z,28.00
2023-05-25T11:32:08.236Z,27.70
2023-05-25T11:34:37.586Z,27.30
2023-05-25T11:37:10.449Z,27.50
2023-05-25T11:39:41.470Z,27.60
2023-05-25T11:42:13.070Z,27.80
2023-05-25T11:44:42.316Z,27.60
2023-05-25T11:47:18.944Z,27.30
2023-05-25T11:49:50.239Z,27.20
2023-05-25T11:52:22.173Z,27.30
2023-05-25T11:54:51.026Z,27.20
2023-05-25T11:57:23.060Z,27.20
2023-05-25T11:59:55.721Z,26.60
2023-05-25T12:02:27.028Z,26.70
2023-05-25T12:04:57.853Z,27.30
2023-05-25T12:07:30.703Z,27.30
2023-05-25T12:10:09.628Z,27.10
2023-05-25T12:12:45.275Z,27.30
2023-05-25T12:15:17.195Z,27.50
2023-05-25T12:17:49.890Z,27.00
2023-05-25T12:20:20.357Z,26.80
2023-05-25T12:22:50.645Z,26.90
2023-05-25T12:25:22.769Z,27.10
2023-05-25T12:28:06.303Z,27.30
2023-05-25T12:30:35.121Z,27.20
2023-05-25T12:33:04.843Z,27.00
2023-05-25T12:35:47.574Z,26.80
2023-05-25T12:38:19.912Z,26.80
2023-05-25T12:40:49.254Z,26.80
2023-05-25T12:43:18.628Z,27.30
2023-05-25T12:45:47.375Z,27.80
2023-05-25T12:48:16.371Z,27.50
2023-05-25T12:51:02.434Z,27.50
2023-05-25T12:53:33.784Z,27.50
2023-05-25T12:56:04.294Z,27.50
2023-05-25T12:58:33.608Z,27.20
2023-05-25T13:01:02.298Z,27.20
2023-05-25T13:03:30.823Z,27.10
2023-05-25T13:06:03.754Z,27.10
2023-05-25T13:08:34.632Z,27.00
2023-05-25T13:11:03.766Z,27.20
2023-05-25T13:13:32.422Z,27.00
2023-05-25T13:16:01.449Z,26.90
2023-05-25T13:18:31.417Z,26.80
2023-05-25T13:21:00.859Z,27.00
2023-05-25T13:23:34.428Z,27.30
2023-05-25T13:26:03.715Z,27.40
2023-05-25T13:28:33.579Z,27.20
2023-05-25T13:31:02.296Z,27.20
2023-05-25T13:33:30.967Z,27.10
2023-05-25T13:36:07.827Z,27.10
2023-05-25T13:38:40.158Z,26.70
2023-05-25T13:41:08.688Z,26.60
2023-05-25T13:43:37.908Z,26.60
2023-05-25T13:46:07.074Z,26.50
2023-05-25T13:48:39.486Z,26.30
2023-05-25T13:51:08.125Z,26.40
2023-05-25T13:53:40.054Z,26.30
2023-05-25T13:56:08.564Z,26.20
2023-05-25T13:58:38.135Z,26.20
2023-05-25T14:01:07.188Z,26.40
2023-05-25T14:03:36.161Z,26.30
2023-05-25T14:06:06.033Z,26.40
2023-05-25T14:08:35.854Z,26.30
2023-05-25T14:11:06.724Z,26.40
2023-05-25T14:13:37.544Z,26.30
2023-05-25T14:16:06.334Z,26.20
2023-05-25T14:18:35.739Z,26.10
2023-05-25T14:21:06.155Z,26.10
2023-05-25T14:23:35.054Z,26.20
2023-05-25T14:26:05.615Z,26.10
2023-05-25T14:28:35.144Z,26.20
2023-05-25T14:31:05.582Z,26.20
2023-05-25T14:33:36.097Z,26.10
2023-05-25T14:36:07.860Z,25.90
2023-05-25T14:38:37.717Z,25.90
2023-05-25T14:41:08.147Z,25.90
2023-05-25T14:43:37.514Z,25.80
2023-05-25T14:46:08.710Z,25.80
2023-05-25T14:48:40.395Z,25.70
2023-05-25T14:51:10.701Z,25.60
2023-05-25T14:53:40.938Z,25.70
2023-05-25T14:56:11.460Z,25.60
2023-05-25T14:58:42.349Z,25.60
2023-05-25T15:01:11.786Z,25.60
2023-05-25T15:03:41.641Z,25.60
2023-05-25T15:06:10.611Z,25.50
2023-05-25T15:08:39.328Z,25.50
2023-05-25T15:11:10.695Z,25.50
2023-05-25T15:13:40.692Z,25.40
2023-05-25T15:16:13.020Z,25.30
2023-05-25T15:18:42.045Z,25.20
2023-05-25T15:21:12.156Z,25.20
2023-05-25T15:23:41.695Z,25.20
2023-05-25T15:26:11.898Z,25.10
2023-05-25T15:28:41.817Z,25.00
2023-05-25T15:31:12.002Z,25.00
2023-05-25T15:33:53.897Z,24.90
2023-05-25T15:36:26.997Z,24.70
2023-05-25T15:38:57.111Z,24.70
2023-05-25T15:41:27.093Z,24.70
2023-05-25T15:44:01.128Z,24.70
2023-05-25T15:46:30.383Z,24.70
2023-05-25T15:48:59.518Z,24.70
2023-05-25T15:51:28.446Z,24.60
2023-05-25T15:53:57.829Z,24.60
2023-05-25T15:56:28.437Z,24.60
2023-05-25T15:58:56.961Z,24.60
2023-05-25T16:01:26.116Z,24.50
2023-05-25T16:03:55.579Z,24.40
2023-05-25T16:06:24.753Z,24.30
2023-05-25T16:08:53.849Z,24.30
2023-05-25T16:11:22.997Z,24.20
2023-05-25T16:13:53.413Z,24.10
2023-05-25T16:16:22.505Z,24.00
2023-05-25T16:18:52.132Z,23.90
2023-05-25T16:21:21.948Z,24.00
2023-05-25T16:23:51.008Z,24.00
2023-05-25T16:26:19.883Z,24.00
2023-05-25T16:28:48.612Z,24.00
2023-05-25T16:31:19.029Z,24.00
2023-05-25T16:33:49.499Z,23.90
2023-05-25T16:36:18.342Z,23.80
2023-05-25T16:38:47.090Z,23.80
2023-05-25T16:41:15.959Z,23.80
2023-05-25T16:43:44.969Z,23.80
2023-05-25T16:46:14.763Z,23.70
2023-05-25T16:48:45.137Z,23.60
2023-05-25T16:51:15.512Z,23.50
2023-05-25T16:53:45.625Z,23.50
2023-05-25T16:56:15.841Z,23.50
2023-05-25T16:58:44.765Z,23.40
2023-05-25T17:01:13.553Z,23.40
2023-05-25T17:03:42.813Z,23.40
2023-05-25T17:06:13.095Z,23.30
2023-05-25T17:08:42.593Z,23.30
2023-05-25T17:11:11.506Z,23.10
2023-05-25T17:13:40.133Z,23.10
2023-05-25T17:16:09.249Z,23.10
2023-05-25T17:18:39.320Z,23.10
2023-05-25T17:21:08.511Z,23.00
2023-05-25T17:23:39.091Z,23.00
2023-05-25T17:26:07.795Z,22.90
2023-05-25T17:28:37.757Z,22.80
2023-05-25T17:31:09.218Z,22.70
2023-05-25T17:33:41.244Z,22.70
2023-05-25T17:36:10.112Z,22.60
2023-05-25T17:38:41.167Z,22.60
2023-05-25T17:41:09.695Z,22.50
2023-05-25T17:43:40.030Z,22.40
2023-05-25T17:46:09.165Z,22.40
2023-05-25T17:48:37.938Z,22.30
2023-05-25T17:51:06.468Z,22.30
2023-05-25T17:53:35.117Z,22.30
2023-05-25T17:56:07.280Z,22.20
2023-05-25T17:58:37.226Z,22.10
2023-05-25T18:01:06.750Z,22.00
2023-05-25T18:03:36.218Z,21.90
2023-05-25T18:06:05.498Z,21.80
2023-05-25T18:08:35.797Z,21.80
2023-05-25T18:11:06.305Z,21.70
2023-05-25T18:13:34.957Z,21.60
2023-05-25T18:16:03.998Z,21.60
2023-05-25T18:18:32.918Z,21.50
2023-05-25T18:21:01.726Z,21.40
2023-05-25T18:23:30.890Z,21.30
2023-05-25T18:25:59.697Z,21.20
2023-05-25T18:28:31.616Z,21.10
2023-05-25T18:31:00.465Z,21.00
2023-05-25T18:33:29.610Z,21.00
2023-05-25T18:35:59.750Z,20.90
2023-05-25T18:38:28.501Z,20.80
2023-05-25T18:40:57.012Z,20.70
2023-05-25T18:43:26.073Z,20.60
2023-05-25T18:45:56.123Z,20.60
2023-05-25T18:48:25.097Z,20.50
2023-05-25T18:50:54.238Z,20.40
2023-05-25T18:53:23.084Z,20.40
2023-05-25T18:55:52.276Z,20.30
2023-05-25T18:58:21.604Z,20.20
2023-05-25T19:00:50.437Z,20.10
2023-05-25T19:03:20.768Z,20.00
2023-05-25T19:05:49.945Z,20.00
2023-05-25T19:08:18.658Z,19.90
2023-05-25T19:10:47.101Z,19.80
2023-05-25T19:13:16.141Z,19.70
2023-05-25T19:15:44.985Z,19.70
2023-05-25T19:18:14.251Z,19.60
2023-05-25T19:20:46.130Z,19.50
2023-05-25T19:23:15.112Z,19.40
2023-05-25T19:25:44.446Z,19.30
2023-05-25T19:28:14.167Z,19.30
2023-05-25T19:30:43.578Z,19.20
2023-05-25T19:33:12.186Z,19.10
2023-05-25T19:35:41.913Z,19.00
2023-05-25T19:38:12.426Z,18.90
2023-05-25T19:40:41.408Z,18.80
2023-05-25T19:43:10.077Z,18.70
2023-05-25T19:45:39.062Z,18.70
2023-05-25T19:48:07.743Z,18.60
2023-05-25T19:50:37.086Z,18.50
2023-05-25T19:53:05.635Z,18.40
2023-05-25T19:55:39.152Z,18.40
2023-05-25T19:58:08.308Z,18.30
2023-05-25T20:00:36.971Z,18.20
2023-05-25T20:03:06.297Z,18.10
2023-05-25T20:05:35.297Z,18.00
2023-05-25T20:08:03.875Z,17.90
2023-05-25T20:10:38.599Z,17.90
2023-05-25T20:13:09.161Z,17.70
2023-05-25T20:15:38.295Z,17.60
2023-05-25T20:18:07.558Z,17.50
2023-05-25T20:20:36.858Z,17.50
2023-05-25T20:23:05.822Z,17.40
2023-05-25T20:25:34.601Z,17.30
2023-05-25T20:28:03.148Z,17.20
2023-05-25T20:30:34.791Z,17.20
2023-05-25T20:33:03.581Z,17.00
2023-05-25T20:35:32.899Z,17.00
2023-05-25T20:38:02.045Z,16.90
2023-05-25T20:40:30.650Z,16.80
2023-05-25T20:43:00.191Z,16.70
2023-05-25T20:45:29.037Z,16.60
2023-05-25T20:48:04.963Z,16.60
2023-05-25T20:50:34.317Z,16.50
2023-05-25T20:53:03.214Z,16.40
2023-05-25T20:55:31.799Z,16.40
2023-05-25T20:58:01.318Z,16.30
2023-05-25T21:00:30.505Z,16.20
2023-05-25T21:02:59.311Z,16.20
2023-05-25T21:05:29.678Z,16.20
2023-05-25T21:07:58.591Z,16.10
2023-05-25T21:10:27.168Z,16.10
2023-05-25T21:12:56.013Z,16.10
2023-05-25T21:15:25.715Z,16.10
2023-05-25T21:17:54.707Z,16.20
2023-05-25T21:20:25.962Z,16.20
2023-05-25T21:22:56.642Z,16.20
2023-05-25T21:25:25.586Z,16.20
2023-05-25T21:27:57.187Z,16.20
2023-05-25T21:30:26.599Z,16.30
2023-05-25T21:32:56.913Z,16.30
2023-05-25T21:35:25.658Z,16.30
2023-05-25T21:37:55.703Z,16.30
2023-05-25T21:40:25.986Z,16.40
2023-05-25T21:42:55.086Z,16.40
2023-05-25T21:45:24.411Z,16.40
2023-05-25T21:47:53.370Z,16.40
2023-05-25T21:50:21.961Z,16.40
2023-05-25T21:52:52.615Z,16.40
2023-05-25T21:55:23.093Z,16.40
2023-05-25T21:57:53.658Z,16.30
2023-05-25T22:00:23.523Z,16.30
2023-05-25T22:02:52.557Z,16.30
2023-05-25T22:05:21.673Z,16.30
2023-05-25T22:07:52.588Z,16.20
2023-05-25T22:10:25.055Z,16.20
2023-05-25T22:12:54.112Z,16.20
2023-05-25T22:15:22.984Z,16.20
2023-05-25T22:17:52.485Z,16.10
2023-05-25T22:20:22.141Z,16.10
2023-05-25T22:22:51.773Z,16.10
2023-05-25T22:25:20.334Z,16.10
2023-05-25T22:27:50.511Z,16.00
2023-05-25T22:30:19.184Z,16.00
2023-05-25T22:32:48.128Z,15.90
2023-05-25T22:35:17.045Z,15.90
2023-05-25T22:37:46.358Z,15.80
2023-05-25T22:40:15.755Z,15.80
2023-05-25T22:42:50.266Z,15.70
2023-05-25T22:45:22.159Z,15.70
2023-05-25T22:47:51.489Z,15.70
2023-05-25T22:50:21.486Z,15.60
2023-05-25T22:52:50.346Z,15.50
2023-05-25T22:55:20.359Z,15.50
2023-05-25T22:57:49.851Z,15.50
2023-05-25T23:00:20.456Z,15.50
2023-05-25T23:02:49.785Z,15.50
2023-05-25T23:05:18.696Z,15.50
2023-05-25T23:07:47.788Z,15.40
2023-05-25T23:10:16.322Z,15.40
2023-05-25T23:12:45.705Z,15.40
2023-05-25T23:15:14.456Z,15.40
2023-05-25T23:17:44.542Z,15.40
2023-05-25T23:20:15.318Z,15.30
2023-05-25T23:22:49.837Z,15.30
2023-05-25T23:25:18.416Z,15.30
2023-05-25T23:27:47.327Z,15.30
2023-05-25T23:30:16.912Z,15.30
2023-05-25T23:32:46.926Z,15.30
2023-05-25T23:35:17.585Z,15.20
2023-05-25T23:37:46.106Z,15.20
2023-05-25T23:40:16.567Z,15.10
2023-05-25T23:42:46.006Z,15.10
2023-05-25T23:45:16.826Z,15.10
2023-05-25T23:47:46.901Z,15.10
2023-05-25T23:50:17.139Z,15.10
2023-05-25T23:52:47.928Z,15.10
2023-05-25T23:55:18.414Z,15.10
2023-05-25T23:57:47.675Z,15.10
